sensor_id;sensor_type;location;lat;lon;timestamp;temperature;humidity
17182;DHT22;8706;48.254;16.422;2023-11-22T00:00:13;19.80;63.90
17182;DHT22;8706;48.254;16.422;2023-11-22T00:02:41;19.80;63.90
17182;DHT22;8706;48.254;16.422;2023-11-22T00:05:09;19.90;63.80
17182;DHT22;8706;48.254;16.422;2023-11-22T00:07:36;19.80;63.90
17182;DHT22;8706;48.254;16.422;2023-11-22T00:10:04;19.80;63.90
17182;DHT22;8706;48.254;16.422;2023-11-22T00:12:31;19.80;63.90
17182;DHT22;8706;48.254;16.422;2023-11-22T00:15:02;19.80;63.90
17182;DHT22;8706;48.254;16.422;2023-11-22T00:17:30;19.90;63.90
17182;DHT22;8706;48.254;16.422;2023-11-22T00:19:58;19.80;63.90
17182;DHT22;8706;48.254;16.422;2023-11-22T00:22:26;19.90;63.90
17182;DHT22;8706;48.254;16.422;2023-11-22T00:24:53;19.80;63.90
17182;DHT22;8706;48.254;16.422;2023-11-22T00:27:20;19.90;63.90
17182;DHT22;8706;48.254;16.422;2023-11-22T00:29:47;19.80;63.90
17182;DHT22;8706;48.254;16.422;2023-11-22T00:32:14;19.80;64.00
17182;DHT22;8706;48.254;16.422;2023-11-22T00:34:41;19.80;63.90
17182;DHT22;8706;48.254;16.422;2023-11-22T00:37:09;19.80;63.90
17182;DHT22;8706;48.254;16.422;2023-11-22T00:39:36;19.80;63.90
17182;DHT22;8706;48.254;16.422;2023-11-22T00:42:04;19.80;63.90
17182;DHT22;8706;48.254;16.422;2023-11-22T00:44:31;19.80;63.90
17182;DHT22;8706;48.254;16.422;2023-11-22T00:46:57;19.80;64.00
17182;DHT22;8706;48.254;16.422;2023-11-22T00:49:24;19.80;64.00
17182;DHT22;8706;48.254;16.422;2023-11-22T00:51:51;19.80;64.00
17182;DHT22;8706;48.254;16.422;2023-11-22T00:54:19;19.80;63.90
17182;DHT22;8706;48.254;16.422;2023-11-22T00:56:46;19.80;63.90
17182;DHT22;8706;48.254;16.422;2023-11-22T00:59:14;19.80;63.90
17182;DHT22;8706;48.254;16.422;2023-11-22T01:01:41;19.80;64.00
17182;DHT22;8706;48.254;16.422;2023-11-22T01:04:08;19.80;64.00
17182;DHT22;8706;48.254;16.422;2023-11-22T01:06:35;19.90;64.00
17182;DHT22;8706;48.254;16.422;2023-11-22T01:09:02;19.80;64.00
17182;DHT22;8706;48.254;16.422;2023-11-22T01:11:30;19.80;64.00
17182;DHT22;8706;48.254;16.422;2023-11-22T01:13:57;19.80;64.00
17182;DHT22;8706;48.254;16.422;2023-11-22T01:16:24;19.80;64.00
17182;DHT22;8706;48.254;16.422;2023-11-22T01:18:51;19.80;64.00
17182;DHT22;8706;48.254;16.422;2023-11-22T01:21:19;19.80;64.00
17182;DHT22;8706;48.254;16.422;2023-11-22T01:23:46;19.80;64.10
17182;DHT22;8706;48.254;16.422;2023-11-22T01:26:13;19.80;64.10
17182;DHT22;8706;48.254;16.422;2023-11-22T01:28:43;19.80;64.00
17182;DHT22;8706;48.254;16.422;2023-11-22T01:31:11;19.80;64.00
17182;DHT22;8706;48.254;16.422;2023-11-22T01:33:39;19.80;64.10
17182;DHT22;8706;48.254;16.422;2023-11-22T01:36:06;19.80;64.10
17182;DHT22;8706;48.254;16.422;2023-11-22T01:38:33;19.80;64.00
17182;DHT22;8706;48.254;16.422;2023-11-22T01:41:00;19.80;64.00
17182;DHT22;8706;48.254;16.422;2023-11-22T01:43:27;19.80;64.00
17182;DHT22;8706;48.254;16.422;2023-11-22T01:45:55;19.80;64.00
17182;DHT22;8706;48.254;16.422;2023-11-22T01:48:23;19.80;64.10
17182;DHT22;8706;48.254;16.422;2023-11-22T01:50:51;19.80;64.10
17182;DHT22;8706;48.254;16.422;2023-11-22T01:53:19;19.80;64.10
17182;DHT22;8706;48.254;16.422;2023-11-22T01:55:50;19.80;64.20
17182;DHT22;8706;48.254;16.422;2023-11-22T01:58:32;19.80;64.20
17182;DHT22;8706;48.254;16.422;2023-11-22T02:01:15;19.80;64.20
17182;DHT22;8706;48.254;16.422;2023-11-22T02:03:46;19.80;64.20
17182;DHT22;8706;48.254;16.422;2023-11-22T02:06:15;19.80;64.20
17182;DHT22;8706;48.254;16.422;2023-11-22T02:08:43;19.80;64.30
17182;DHT22;8706;48.254;16.422;2023-11-22T02:11:34;19.80;64.30
17182;DHT22;8706;48.254;16.422;2023-11-22T02:14:05;19.80;64.30
17182;DHT22;8706;48.254;16.422;2023-11-22T02:16:34;19.80;64.30
17182;DHT22;8706;48.254;16.422;2023-11-22T02:19:01;19.80;64.20
17182;DHT22;8706;48.254;16.422;2023-11-22T02:21:28;19.80;64.20
17182;DHT22;8706;48.254;16.422;2023-11-22T02:23:56;19.80;64.30
17182;DHT22;8706;48.254;16.422;2023-11-22T02:26:23;19.80;64.30
17182;DHT22;8706;48.254;16.422;2023-11-22T02:28:50;19.80;64.30
17182;DHT22;8706;48.254;16.422;2023-11-22T02:31:18;19.80;64.30
17182;DHT22;8706;48.254;16.422;2023-11-22T02:33:44;19.70;64.30
17182;DHT22;8706;48.254;16.422;2023-11-22T02:36:12;19.70;64.30
17182;DHT22;8706;48.254;16.422;2023-11-22T02:38:38;19.80;64.40
17182;DHT22;8706;48.254;16.422;2023-11-22T02:41:07;19.70;64.30
17182;DHT22;8706;48.254;16.422;2023-11-22T02:43:34;19.80;64.40
17182;DHT22;8706;48.254;16.422;2023-11-22T02:46:01;19.80;64.40
17182;DHT22;8706;48.254;16.422;2023-11-22T02:48:29;19.70;64.30
17182;DHT22;8706;48.254;16.422;2023-11-22T02:50:56;19.70;64.40
17182;DHT22;8706;48.254;16.422;2023-11-22T02:53:23;19.80;64.40
17182;DHT22;8706;48.254;16.422;2023-11-22T02:55:49;19.70;64.40
17182;DHT22;8706;48.254;16.422;2023-11-22T02:58:18;19.70;64.40
17182;DHT22;8706;48.254;16.422;2023-11-22T03:00:44;19.70;64.40
17182;DHT22;8706;48.254;16.422;2023-11-22T03:03:12;19.70;64.40
17182;DHT22;8706;48.254;16.422;2023-11-22T03:05:39;19.70;64.40
17182;DHT22;8706;48.254;16.422;2023-11-22T03:08:06;19.70;64.50
17182;DHT22;8706;48.254;16.422;2023-11-22T03:10:35;19.70;64.40
17182;DHT22;8706;48.254;16.422;2023-11-22T03:13:02;19.70;64.40
17182;DHT22;8706;48.254;16.422;2023-11-22T03:15:31;19.80;64.50
17182;DHT22;8706;48.254;16.422;2023-11-22T03:17:58;19.70;64.40
17182;DHT22;8706;48.254;16.422;2023-11-22T03:20:25;19.70;64.50
17182;DHT22;8706;48.254;16.422;2023-11-22T03:22:52;19.70;64.40
17182;DHT22;8706;48.254;16.422;2023-11-22T03:25:19;19.70;64.50
17182;DHT22;8706;48.254;16.422;2023-11-22T03:27:46;19.70;64.50
17182;DHT22;8706;48.254;16.422;2023-11-22T03:30:13;19.70;64.50
17182;DHT22;8706;48.254;16.422;2023-11-22T03:32:42;19.70;64.50
17182;DHT22;8706;48.254;16.422;2023-11-22T03:35:09;19.70;64.60
17182;DHT22;8706;48.254;16.422;2023-11-22T03:37:37;19.70;64.50
17182;DHT22;8706;48.254;16.422;2023-11-22T03:40:05;19.70;64.50
17182;DHT22;8706;48.254;16.422;2023-11-22T03:42:32;19.70;64.60
17182;DHT22;8706;48.254;16.422;2023-11-22T03:44:59;19.70;64.60
17182;DHT22;8706;48.254;16.422;2023-11-22T03:47:26;19.70;64.60
17182;DHT22;8706;48.254;16.422;2023-11-22T03:49:54;19.70;64.60
17182;DHT22;8706;48.254;16.422;2023-11-22T03:52:21;19.70;64.70
17182;DHT22;8706;48.254;16.422;2023-11-22T03:54:48;19.70;64.60
17182;DHT22;8706;48.254;16.422;2023-11-22T03:57:15;19.70;64.60
17182;DHT22;8706;48.254;16.422;2023-11-22T03:59:42;19.60;64.60
17182;DHT22;8706;48.254;16.422;2023-11-22T04:02:09;19.60;64.70
17182;DHT22;8706;48.254;16.422;2023-11-22T04:04:36;19.70;64.60
17182;DHT22;8706;48.254;16.422;2023-11-22T04:07:06;19.70;64.60
17182;DHT22;8706;48.254;16.422;2023-11-22T04:09:33;19.70;64.70
17182;DHT22;8706;48.254;16.422;2023-11-22T04:12:00;19.70;64.70
17182;DHT22;8706;48.254;16.422;2023-11-22T04:14:27;19.60;64.60
17182;DHT22;8706;48.254;16.422;2023-11-22T04:16:54;19.60;64.60
17182;DHT22;8706;48.254;16.422;2023-11-22T04:19:21;19.70;64.60
17182;DHT22;8706;48.254;16.422;2023-11-22T04:21:48;19.60;64.60
17182;DHT22;8706;48.254;16.422;2023-11-22T04:24:16;19.60;64.70
17182;DHT22;8706;48.254;16.422;2023-11-22T04:26:43;19.60;64.70
17182;DHT22;8706;48.254;16.422;2023-11-22T04:29:10;19.60;64.70
17182;DHT22;8706;48.254;16.422;2023-11-22T04:31:37;19.60;64.70
17182;DHT22;8706;48.254;16.422;2023-11-22T04:34:04;19.60;64.70
17182;DHT22;8706;48.254;16.422;2023-11-22T04:36:31;19.60;64.70
17182;DHT22;8706;48.254;16.422;2023-11-22T04:38:58;19.60;64.80
17182;DHT22;8706;48.254;16.422;2023-11-22T04:41:27;19.60;64.80
17182;DHT22;8706;48.254;16.422;2023-11-22T04:43:54;19.60;64.80
17182;DHT22;8706;48.254;16.422;2023-11-22T04:46:21;19.60;64.80
17182;DHT22;8706;48.254;16.422;2023-11-22T04:48:48;19.60;64.80
17182;DHT22;8706;48.254;16.422;2023-11-22T04:51:17;19.60;64.80
17182;DHT22;8706;48.254;16.422;2023-11-22T04:53:44;19.60;64.90
17182;DHT22;8706;48.254;16.422;2023-11-22T04:56:11;19.60;65.00
17182;DHT22;8706;48.254;16.422;2023-11-22T04:58:39;19.60;64.80
17182;DHT22;8706;48.254;16.422;2023-11-22T05:01:06;19.60;64.80
17182;DHT22;8706;48.254;16.422;2023-11-22T05:03:35;19.60;64.90
17182;DHT22;8706;48.254;16.422;2023-11-22T05:06:03;19.60;64.90
17182;DHT22;8706;48.254;16.422;2023-11-22T05:08:30;19.60;64.80
17182;DHT22;8706;48.254;16.422;2023-11-22T05:10:57;19.60;64.80
17182;DHT22;8706;48.254;16.422;2023-11-22T05:13:24;19.60;64.80
17182;DHT22;8706;48.254;16.422;2023-11-22T05:15:52;19.60;64.90
17182;DHT22;8706;48.254;16.422;2023-11-22T05:18:19;19.60;64.90
17182;DHT22;8706;48.254;16.422;2023-11-22T05:20:47;19.60;64.80
17182;DHT22;8706;48.254;16.422;2023-11-22T05:23:14;19.60;64.80
17182;DHT22;8706;48.254;16.422;2023-11-22T05:25:41;19.60;64.80
17182;DHT22;8706;48.254;16.422;2023-11-22T05:28:08;19.50;64.80
17182;DHT22;8706;48.254;16.422;2023-11-22T05:30:35;19.50;64.90
17182;DHT22;8706;48.254;16.422;2023-11-22T05:33:03;19.50;64.80
17182;DHT22;8706;48.254;16.422;2023-11-22T05:35:30;19.60;64.80
17182;DHT22;8706;48.254;16.422;2023-11-22T05:37:57;19.50;64.80
17182;DHT22;8706;48.254;16.422;2023-11-22T05:40:24;19.50;64.80
17182;DHT22;8706;48.254;16.422;2023-11-22T05:42:51;19.50;64.80
17182;DHT22;8706;48.254;16.422;2023-11-22T05:45:17;19.60;64.80
17182;DHT22;8706;48.254;16.422;2023-11-22T05:47:44;19.50;64.80
17182;DHT22;8706;48.254;16.422;2023-11-22T05:50:13;19.50;64.90
17182;DHT22;8706;48.254;16.422;2023-11-22T05:52:39;19.50;64.80
17182;DHT22;8706;48.254;16.422;2023-11-22T05:55:07;19.60;64.80
17182;DHT22;8706;48.254;16.422;2023-11-22T05:57:34;19.50;64.70
17182;DHT22;8706;48.254;16.422;2023-11-22T06:00:01;19.50;64.70
17182;DHT22;8706;48.254;16.422;2023-11-22T06:02:28;19.60;64.80
17182;DHT22;8706;48.254;16.422;2023-11-22T06:04:55;19.50;64.60
17182;DHT22;8706;48.254;16.422;2023-11-22T06:07:23;19.50;64.70
17182;DHT22;8706;48.254;16.422;2023-11-22T06:09:50;19.50;64.70
17182;DHT22;8706;48.254;16.422;2023-11-22T06:12:17;19.50;64.60
17182;DHT22;8706;48.254;16.422;2023-11-22T06:14:46;19.50;64.70
17182;DHT22;8706;48.254;16.422;2023-11-22T06:17:13;19.50;64.70
17182;DHT22;8706;48.254;16.422;2023-11-22T06:19:40;19.50;64.70
17182;DHT22;8706;48.254;16.422;2023-11-22T06:22:07;19.50;64.60
17182;DHT22;8706;48.254;16.422;2023-11-22T06:24:36;19.50;65.20
17182;DHT22;8706;48.254;16.422;2023-11-22T06:27:03;19.50;64.50
17182;DHT22;8706;48.254;16.422;2023-11-22T06:29:31;19.50;64.60
17182;DHT22;8706;48.254;16.422;2023-11-22T06:31:57;19.50;64.50
17182;DHT22;8706;48.254;16.422;2023-11-22T06:34:24;19.50;64.50
17182;DHT22;8706;48.254;16.422;2023-11-22T06:36:51;19.50;64.40
17182;DHT22;8706;48.254;16.422;2023-11-22T06:39:18;19.50;64.40
17182;DHT22;8706;48.254;16.422;2023-11-22T06:41:46;19.50;64.40
17182;DHT22;8706;48.254;16.422;2023-11-22T06:44:13;19.50;64.40
17182;DHT22;8706;48.254;16.422;2023-11-22T06:46:40;19.50;64.40
17182;DHT22;8706;48.254;16.422;2023-11-22T06:49:07;19.50;64.40
17182;DHT22;8706;48.254;16.422;2023-11-22T06:51:34;19.50;64.30
17182;DHT22;8706;48.254;16.422;2023-11-22T06:54:01;19.50;64.30
17182;DHT22;8706;48.254;16.422;2023-11-22T06:56:28;19.50;64.20
17182;DHT22;8706;48.254;16.422;2023-11-22T06:58:56;19.50;64.20
17182;DHT22;8706;48.254;16.422;2023-11-22T07:01:24;19.50;64.20
17182;DHT22;8706;48.254;16.422;2023-11-22T07:03:51;19.50;64.30
17182;DHT22;8706;48.254;16.422;2023-11-22T07:06:19;19.50;64.20
17182;DHT22;8706;48.254;16.422;2023-11-22T07:08:48;19.50;64.20
17182;DHT22;8706;48.254;16.422;2023-11-22T07:11:21;19.50;64.20
17182;DHT22;8706;48.254;16.422;2023-11-22T07:13:49;19.50;64.20
17182;DHT22;8706;48.254;16.422;2023-11-22T07:16:18;19.50;64.20
17182;DHT22;8706;48.254;16.422;2023-11-22T07:18:46;19.50;64.20
17182;DHT22;8706;48.254;16.422;2023-11-22T07:21:13;19.60;64.20
17182;DHT22;8706;48.254;16.422;2023-11-22T07:23:39;19.60;64.10
17182;DHT22;8706;48.254;16.422;2023-11-22T07:26:06;19.50;64.00
17182;DHT22;8706;48.254;16.422;2023-11-22T07:28:33;19.60;64.00
17182;DHT22;8706;48.254;16.422;2023-11-22T07:31:02;19.60;64.00
17182;DHT22;8706;48.254;16.422;2023-11-22T07:33:32;19.60;64.00
17182;DHT22;8706;48.254;16.422;2023-11-22T07:35:59;19.60;63.90
17182;DHT22;8706;48.254;16.422;2023-11-22T07:38:28;19.60;63.90
17182;DHT22;8706;48.254;16.422;2023-11-22T07:40:56;19.50;63.80
17182;DHT22;8706;48.254;16.422;2023-11-22T07:43:23;19.60;63.90
17182;DHT22;8706;48.254;16.422;2023-11-22T07:45:50;19.60;63.90
17182;DHT22;8706;48.254;16.422;2023-11-22T07:48:17;19.60;63.70
17182;DHT22;8706;48.254;16.422;2023-11-22T07:50:45;19.60;63.80
17182;DHT22;8706;48.254;16.422;2023-11-22T07:53:14;19.60;63.70
17182;DHT22;8706;48.254;16.422;2023-11-22T07:55:40;19.60;63.60
17182;DHT22;8706;48.254;16.422;2023-11-22T07:58:07;19.60;63.60
17182;DHT22;8706;48.254;16.422;2023-11-22T08:00:34;19.60;63.60
17182;DHT22;8706;48.254;16.422;2023-11-22T08:03:02;19.60;63.50
17182;DHT22;8706;48.254;16.422;2023-11-22T08:05:29;19.60;63.60
17182;DHT22;8706;48.254;16.422;2023-11-22T08:08:01;19.60;63.60
17182;DHT22;8706;48.254;16.422;2023-11-22T08:10:32;19.60;63.50
17182;DHT22;8706;48.254;16.422;2023-11-22T08:13:00;19.60;63.50
17182;DHT22;8706;48.254;16.422;2023-11-22T08:15:28;19.60;63.50
17182;DHT22;8706;48.254;16.422;2023-11-22T08:17:57;19.60;63.60
17182;DHT22;8706;48.254;16.422;2023-11-22T08:20:23;19.60;63.70
17182;DHT22;8706;48.254;16.422;2023-11-22T08:22:50;19.60;63.70
17182;DHT22;8706;48.254;16.422;2023-11-22T08:25:19;19.60;63.70
17182;DHT22;8706;48.254;16.422;2023-11-22T08:27:46;19.60;63.70
17182;DHT22;8706;48.254;16.422;2023-11-22T08:30:12;19.60;63.60
17182;DHT22;8706;48.254;16.422;2023-11-22T08:32:41;19.60;63.70
17182;DHT22;8706;48.254;16.422;2023-11-22T08:35:09;19.60;63.70
17182;DHT22;8706;48.254;16.422;2023-11-22T08:37:39;19.60;63.70
17182;DHT22;8706;48.254;16.422;2023-11-22T08:40:07;19.70;63.60
17182;DHT22;8706;48.254;16.422;2023-11-22T08:42:38;19.60;63.60
17182;DHT22;8706;48.254;16.422;2023-11-22T08:45:07;19.70;63.50
17182;DHT22;8706;48.254;16.422;2023-11-22T08:47:35;19.80;63.50
17182;DHT22;8706;48.254;16.422;2023-11-22T08:50:02;19.70;63.40
17182;DHT22;8706;48.254;16.422;2023-11-22T08:52:31;19.70;63.40
17182;DHT22;8706;48.254;16.422;2023-11-22T08:54:58;19.80;63.30
17182;DHT22;8706;48.254;16.422;2023-11-22T08:57:26;19.90;63.10
17182;DHT22;8706;48.254;16.422;2023-11-22T08:59:54;19.90;63.10
17182;DHT22;8706;48.254;16.422;2023-11-22T09:02:21;20.00;63.00
17182;DHT22;8706;48.254;16.422;2023-11-22T09:04:49;20.00;62.80
17182;DHT22;8706;48.254;16.422;2023-11-22T09:07:15;20.10;62.60
17182;DHT22;8706;48.254;16.422;2023-11-22T09:09:43;20.20;62.50
17182;DHT22;8706;48.254;16.422;2023-11-22T09:12:10;20.20;62.30
17182;DHT22;8706;48.254;16.422;2023-11-22T09:14:39;20.30;62.30
17182;DHT22;8706;48.254;16.422;2023-11-22T09:17:08;20.20;62.20
17182;DHT22;8706;48.254;16.422;2023-11-22T09:19:36;20.20;62.20
17182;DHT22;8706;48.254;16.422;2023-11-22T09:22:04;20.30;62.20
17182;DHT22;8706;48.254;16.422;2023-11-22T09:24:32;20.30;62.00
17182;DHT22;8706;48.254;16.422;2023-11-22T09:27:02;20.40;62.00
17182;DHT22;8706;48.254;16.422;2023-11-22T09:29:30;20.40;61.80
17182;DHT22;8706;48.254;16.422;2023-11-22T09:31:58;20.50;61.70
17182;DHT22;8706;48.254;16.422;2023-11-22T09:34:27;20.60;61.50
17182;DHT22;8706;48.254;16.422;2023-11-22T09:36:55;20.70;61.40
17182;DHT22;8706;48.254;16.422;2023-11-22T09:39:21;20.70;61.10
17182;DHT22;8706;48.254;16.422;2023-11-22T09:41:50;20.90;60.90
17182;DHT22;8706;48.254;16.422;2023-11-22T09:44:18;21.00;60.60
17182;DHT22;8706;48.254;16.422;2023-11-22T09:46:48;21.20;60.30
17182;DHT22;8706;48.254;16.422;2023-11-22T09:49:20;21.30;60.10
17182;DHT22;8706;48.254;16.422;2023-11-22T09:51:54;21.30;60.00
17182;DHT22;8706;48.254;16.422;2023-11-22T09:54:24;21.30;60.10
17182;DHT22;8706;48.254;16.422;2023-11-22T09:56:56;21.20;60.10
17182;DHT22;8706;48.254;16.422;2023-11-22T09:59:27;21.20;60.00
17182;DHT22;8706;48.254;16.422;2023-11-22T10:01:55;21.20;60.10
17182;DHT22;8706;48.254;16.422;2023-11-22T10:04:25;21.20;60.20
17182;DHT22;8706;48.254;16.422;2023-11-22T10:06:56;21.10;60.20
17182;DHT22;8706;48.254;16.422;2023-11-22T10:09:24;21.10;60.20
17182;DHT22;8706;48.254;16.422;2023-11-22T10:11:52;21.10;60.40
17182;DHT22;8706;48.254;16.422;2023-11-22T10:14:23;21.00;60.40
17182;DHT22;8706;48.254;16.422;2023-11-22T10:16:58;21.00;60.60
17182;DHT22;8706;48.254;16.422;2023-11-22T10:19:26;20.80;60.80
17182;DHT22;8706;48.254;16.422;2023-11-22T10:22:04;20.70;61.00
17182;DHT22;8706;48.254;16.422;2023-11-22T10:24:32;20.70;61.10
17182;DHT22;8706;48.254;16.422;2023-11-22T10:27:00;20.70;61.10
17182;DHT22;8706;48.254;16.422;2023-11-22T10:29:27;20.60;61.30
17182;DHT22;8706;48.254;16.422;2023-11-22T10:31:54;20.70;61.30
17182;DHT22;8706;48.254;16.422;2023-11-22T10:34:23;20.80;61.00
17182;DHT22;8706;48.254;16.422;2023-11-22T10:36:50;20.80;61.10
17182;DHT22;8706;48.254;16.422;2023-11-22T10:39:20;20.60;61.20
17182;DHT22;8706;48.254;16.422;2023-11-22T10:41:47;20.60;61.40
17182;DHT22;8706;48.254;16.422;2023-11-22T10:44:20;20.50;61.60
17182;DHT22;8706;48.254;16.422;2023-11-22T10:46:47;20.40;61.70
17182;DHT22;8706;48.254;16.422;2023-11-22T10:49:14;20.40;61.70
17182;DHT22;8706;48.254;16.422;2023-11-22T10:51:41;20.50;61.70
17182;DHT22;8706;48.254;16.422;2023-11-22T10:54:11;20.40;61.70
17182;DHT22;8706;48.254;16.422;2023-11-22T10:56:40;20.40;61.80
17182;DHT22;8706;48.254;16.422;2023-11-22T10:59:11;20.40;61.80
17182;DHT22;8706;48.254;16.422;2023-11-22T11:01:44;20.40;61.90
17182;DHT22;8706;48.254;16.422;2023-11-22T11:04:23;20.40;61.90
17182;DHT22;8706;48.254;16.422;2023-11-22T11:06:53;20.30;62.00
17182;DHT22;8706;48.254;16.422;2023-11-22T11:09:22;20.20;62.10
17182;DHT22;8706;48.254;16.422;2023-11-22T11:11:54;20.20;62.20
17182;DHT22;8706;48.254;16.422;2023-11-22T11:14:23;20.10;62.30
17182;DHT22;8706;48.254;16.422;2023-11-22T11:16:51;20.10;62.30
17182;DHT22;8706;48.254;16.422;2023-11-22T11:19:20;20.10;62.40
17182;DHT22;8706;48.254;16.422;2023-11-22T11:21:47;20.20;62.30
17182;DHT22;8706;48.254;16.422;2023-11-22T11:24:15;20.20;62.10
17182;DHT22;8706;48.254;16.422;2023-11-22T11:26:47;20.10;62.30
17182;DHT22;8706;48.254;16.422;2023-11-22T11:29:31;20.20;62.40
17182;DHT22;8706;48.254;16.422;2023-11-22T11:31:58;20.10;62.30
17182;DHT22;8706;48.254;16.422;2023-11-22T11:34:26;20.10;62.40
17182;DHT22;8706;48.254;16.422;2023-11-22T11:36:55;20.10;62.50
17182;DHT22;8706;48.254;16.422;2023-11-22T11:39:26;20.10;62.50
17182;DHT22;8706;48.254;16.422;2023-11-22T11:42:08;20.10;62.50
17182;DHT22;8706;48.254;16.422;2023-11-22T11:44:37;20.00;62.70
17182;DHT22;8706;48.254;16.422;2023-11-22T11:47:11;20.00;62.80
17182;DHT22;8706;48.254;16.422;2023-11-22T11:49:38;20.00;62.80
17182;DHT22;8706;48.254;16.422;2023-11-22T11:52:05;19.90;62.80
17182;DHT22;8706;48.254;16.422;2023-11-22T11:54:33;19.90;62.90
17182;DHT22;8706;48.254;16.422;2023-11-22T11:57:00;19.90;62.90
17182;DHT22;8706;48.254;16.422;2023-11-22T11:59:27;19.90;62.90
17182;DHT22;8706;48.254;16.422;2023-11-22T12:01:56;19.90;62.90
17182;DHT22;8706;48.254;16.422;2023-11-22T12:04:25;19.80;62.90
17182;DHT22;8706;48.254;16.422;2023-11-22T12:06:52;19.80;63.00
17182;DHT22;8706;48.254;16.422;2023-11-22T12:09:23;19.80;63.00
17182;DHT22;8706;48.254;16.422;2023-11-22T12:11:51;19.80;63.10
17182;DHT22;8706;48.254;16.422;2023-11-22T12:14:19;19.80;63.10
17182;DHT22;8706;48.254;16.422;2023-11-22T12:16:46;19.80;63.10
17182;DHT22;8706;48.254;16.422;2023-11-22T12:19:22;19.70;63.10
17182;DHT22;8706;48.254;16.422;2023-11-22T12:21:49;19.80;63.20
17182;DHT22;8706;48.254;16.422;2023-11-22T12:24:16;19.80;63.10
17182;DHT22;8706;48.254;16.422;2023-11-22T12:26:45;19.70;63.10
17182;DHT22;8706;48.254;16.422;2023-11-22T12:29:14;19.70;63.10
17182;DHT22;8706;48.254;16.422;2023-11-22T12:31:45;19.70;63.20
17182;DHT22;8706;48.254;16.422;2023-11-22T12:34:14;19.70;63.20
17182;DHT22;8706;48.254;16.422;2023-11-22T12:36:42;19.70;63.20
17182;DHT22;8706;48.254;16.422;2023-11-22T12:39:09;19.70;63.20
17182;DHT22;8706;48.254;16.422;2023-11-22T12:41:46;19.60;63.30
17182;DHT22;8706;48.254;16.422;2023-11-22T12:44:13;19.60;63.40
17182;DHT22;8706;48.254;16.422;2023-11-22T12:46:47;19.60;63.40
17182;DHT22;8706;48.254;16.422;2023-11-22T12:49:16;19.60;63.40
17182;DHT22;8706;48.254;16.422;2023-11-22T12:51:49;19.60;63.50
17182;DHT22;8706;48.254;16.422;2023-11-22T12:54:17;19.60;63.40
17182;DHT22;8706;48.254;16.422;2023-11-22T12:56:47;19.60;63.40
17182;DHT22;8706;48.254;16.422;2023-11-22T12:59:15;19.60;63.50
17182;DHT22;8706;48.254;16.422;2023-11-22T13:01:43;19.50;63.40
17182;DHT22;8706;48.254;16.422;2023-11-22T13:04:10;19.60;63.50
17182;DHT22;8706;48.254;16.422;2023-11-22T13:06:40;19.60;64.20
17182;DHT22;8706;48.254;16.422;2023-11-22T13:09:08;19.50;63.50
17182;DHT22;8706;48.254;16.422;2023-11-22T13:11:40;19.50;63.50
17182;DHT22;8706;48.254;16.422;2023-11-22T13:14:07;19.50;63.50
17182;DHT22;8706;48.254;16.422;2023-11-22T13:16:34;19.50;63.50
17182;DHT22;8706;48.254;16.422;2023-11-22T13:19:04;19.60;63.40
17182;DHT22;8706;48.254;16.422;2023-11-22T13:21:31;19.60;63.50
17182;DHT22;8706;48.254;16.422;2023-11-22T13:23:58;19.60;63.50
17182;DHT22;8706;48.254;16.422;2023-11-22T13:26:26;19.60;63.50
17182;DHT22;8706;48.254;16.422;2023-11-22T13:28:53;19.60;63.50
17182;DHT22;8706;48.254;16.422;2023-11-22T13:31:21;19.60;63.50
17182;DHT22;8706;48.254;16.422;2023-11-22T13:33:48;19.60;63.50
17182;DHT22;8706;48.254;16.422;2023-11-22T13:36:16;19.60;63.50
17182;DHT22;8706;48.254;16.422;2023-11-22T13:38:43;19.60;63.50
17182;DHT22;8706;48.254;16.422;2023-11-22T13:41:09;19.50;63.40
17182;DHT22;8706;48.254;16.422;2023-11-22T13:43:38;19.50;63.40
17182;DHT22;8706;48.254;16.422;2023-11-22T13:46:05;19.60;63.50
17182;DHT22;8706;48.254;16.422;2023-11-22T13:48:32;19.60;63.40
17182;DHT22;8706;48.254;16.422;2023-11-22T13:50:59;19.50;63.40
17182;DHT22;8706;48.254;16.422;2023-11-22T13:53:26;19.60;63.50
17182;DHT22;8706;48.254;16.422;2023-11-22T13:55:58;19.50;63.40
17182;DHT22;8706;48.254;16.422;2023-11-22T13:58:26;19.50;63.40
17182;DHT22;8706;48.254;16.422;2023-11-22T14:00:54;19.50;63.40
17182;DHT22;8706;48.254;16.422;2023-11-22T14:03:21;19.50;63.60
17182;DHT22;8706;48.254;16.422;2023-11-22T14:05:48;19.50;63.60
17182;DHT22;8706;48.254;16.422;2023-11-22T14:08:15;19.50;63.70
17182;DHT22;8706;48.254;16.422;2023-11-22T14:10:42;19.50;63.70
17182;DHT22;8706;48.254;16.422;2023-11-22T14:13:10;19.50;63.80
17182;DHT22;8706;48.254;16.422;2023-11-22T14:15:37;19.50;63.90
17182;DHT22;8706;48.254;16.422;2023-11-22T14:18:06;19.50;63.90
17182;DHT22;8706;48.254;16.422;2023-11-22T14:20:33;19.50;63.90
17182;DHT22;8706;48.254;16.422;2023-11-22T14:23:01;19.50;63.90
17182;DHT22;8706;48.254;16.422;2023-11-22T14:25:27;19.50;64.00
17182;DHT22;8706;48.254;16.422;2023-11-22T14:27:55;19.50;64.00
17182;DHT22;8706;48.254;16.422;2023-11-22T14:30:22;19.50;64.00
17182;DHT22;8706;48.254;16.422;2023-11-22T14:32:50;19.50;64.00
17182;DHT22;8706;48.254;16.422;2023-11-22T14:35:19;19.50;64.10
17182;DHT22;8706;48.254;16.422;2023-11-22T14:37:46;19.50;64.20
17182;DHT22;8706;48.254;16.422;2023-11-22T14:40:13;19.50;64.30
17182;DHT22;8706;48.254;16.422;2023-11-22T14:42:41;19.50;64.20
17182;DHT22;8706;48.254;16.422;2023-11-22T14:45:08;19.60;64.20
17182;DHT22;8706;48.254;16.422;2023-11-22T14:47:37;19.60;64.20
17182;DHT22;8706;48.254;16.422;2023-11-22T14:50:06;19.60;64.30
17182;DHT22;8706;48.254;16.422;2023-11-22T14:52:37;19.60;64.30
17182;DHT22;8706;48.254;16.422;2023-11-22T14:55:04;19.60;64.30
17182;DHT22;8706;48.254;16.422;2023-11-22T14:57:31;19.60;64.30
17182;DHT22;8706;48.254;16.422;2023-11-22T14:59:58;19.60;64.30
17182;DHT22;8706;48.254;16.422;2023-11-22T15:02:25;19.60;64.40
17182;DHT22;8706;48.254;16.422;2023-11-22T15:04:52;19.50;64.40
17182;DHT22;8706;48.254;16.422;2023-11-22T15:07:19;19.50;64.40
17182;DHT22;8706;48.254;16.422;2023-11-22T15:09:48;19.60;64.40
17182;DHT22;8706;48.254;16.422;2023-11-22T15:12:15;19.50;64.30
17182;DHT22;8706;48.254;16.422;2023-11-22T15:14:44;19.60;64.50
17182;DHT22;8706;48.254;16.422;2023-11-22T15:17:13;19.50;64.40
17182;DHT22;8706;48.254;16.422;2023-11-22T15:19:39;19.50;64.50
17182;DHT22;8706;48.254;16.422;2023-11-22T15:22:07;19.50;64.50
17182;DHT22;8706;48.254;16.422;2023-11-22T15:24:34;19.50;64.50
17182;DHT22;8706;48.254;16.422;2023-11-22T15:27:02;19.50;64.50
17182;DHT22;8706;48.254;16.422;2023-11-22T15:29:29;19.50;64.50
17182;DHT22;8706;48.254;16.422;2023-11-22T15:31:57;19.50;64.50
17182;DHT22;8706;48.254;16.422;2023-11-22T15:34:24;19.50;64.40